sensor_id;sensor_type;location;lat;lon;timestamp;temperature;humidity
29713;DHT22;16623;53.632;10.016;2023-02-03T00:01:22;5.70;99.90
29713;DHT22;16623;53.632;10.016;2023-02-03T00:03:48;5.80;99.90
29713;DHT22;16623;53.632;10.016;2023-02-03T00:06:13;5.90;99.90
29713;DHT22;16623;53.632;10.016;2023-02-03T00:08:39;5.90;99.90
29713;DHT22;16623;53.632;10.016;2023-02-03T00:11:05;6.00;99.90
29713;DHT22;16623;53.632;10.016;2023-02-03T00:13:31;6.00;99.90
29713;DHT22;16623;53.632;10.016;2023-02-03T00:15:57;6.10;99.90
29713;DHT22;16623;53.632;10.016;2023-02-03T00:18:22;6.10;99.90
29713;DHT22;16623;53.632;10.016;2023-02-03T00:20:48;7.60;99.90
29713;DHT22;16623;53.632;10.016;2023-02-03T00:23:13;6.20;99.90
29713;DHT22;16623;53.632;10.016;2023-02-03T00:25:39;8.10;99.90
29713;DHT22;16623;53.632;10.016;2023-02-03T00:28:05;6.30;99.90
29713;DHT22;16623;53.632;10.016;2023-02-03T00:30:33;6.20;99.90
29713;DHT22;16623;53.632;10.016;2023-02-03T00:32:59;6.30;99.90
29713;DHT22;16623;53.632;10.016;2023-02-03T00:35:25;6.40;99.90
29713;DHT22;16623;53.632;10.016;2023-02-03T00:37:55;6.40;99.90
29713;DHT22;16623;53.632;10.016;2023-02-03T00:40:23;6.50;99.90
29713;DHT22;16623;53.632;10.016;2023-02-03T00:42:49;6.50;99.90
29713;DHT22;16623;53.632;10.016;2023-02-03T00:45:14;6.60;99.90
29713;DHT22;16623;53.632;10.016;2023-02-03T00:47:40;6.60;99.90
29713;DHT22;16623;53.632;10.016;2023-02-03T00:50:06;6.70;99.90
29713;DHT22;16623;53.632;10.016;2023-02-03T00:52:32;6.80;99.90
29713;DHT22;16623;53.632;10.016;2023-02-03T00:54:57;6.80;99.90
29713;DHT22;16623;53.632;10.016;2023-02-03T00:57:23;6.90;99.90
29713;DHT22;16623;53.632;10.016;2023-02-03T00:59:48;7.00;99.90
29713;DHT22;16623;53.632;10.016;2023-02-03T01:02:14;7.10;99.90
29713;DHT22;16623;53.632;10.016;2023-02-03T01:04:41;7.10;99.90
29713;DHT22;16623;53.632;10.016;2023-02-03T01:07:07;7.10;99.90
29713;DHT22;16623;53.632;10.016;2023-02-03T01:09:33;7.20;99.90
29713;DHT22;16623;53.632;10.016;2023-02-03T01:11:59;7.20;99.90
29713;DHT22;16623;53.632;10.016;2023-02-03T01:14:26;7.30;99.90
29713;DHT22;16623;53.632;10.016;2023-02-03T01:16:52;7.30;99.90
29713;DHT22;16623;53.632;10.016;2023-02-03T01:19:17;7.40;99.90
29713;DHT22;16623;53.632;10.016;2023-02-03T01:21:43;7.40;99.90
29713;DHT22;16623;53.632;10.016;2023-02-03T01:24:08;7.40;99.90
29713;DHT22;16623;53.632;10.016;2023-02-03T01:26:35;7.40;99.90
29713;DHT22;16623;53.632;10.016;2023-02-03T01:29:02;7.50;99.90
29713;DHT22;16623;53.632;10.016;2023-02-03T01:33:55;7.50;99.90
29713;DHT22;16623;53.632;10.016;2023-02-03T01:36:23;7.60;99.90
29713;DHT22;16623;53.632;10.016;2023-02-03T01:38:49;7.60;99.90
29713;DHT22;16623;53.632;10.016;2023-02-03T01:41:23;8.70;99.90
29713;DHT22;16623;53.632;10.016;2023-02-03T01:43:52;7.60;99.90
29713;DHT22;16623;53.632;10.016;2023-02-03T01:46:30;9.20;99.90
29713;DHT22;16623;53.632;10.016;2023-02-03T01:51:29;7.60;99.90
29713;DHT22;16623;53.632;10.016;2023-02-03T01:53:54;7.60;99.90
29713;DHT22;16623;53.632;10.016;2023-02-03T01:56:22;7.60;99.90
29713;DHT22;16623;53.632;10.016;2023-02-03T01:58:48;7.60;99.90
29713;DHT22;16623;53.632;10.016;2023-02-03T02:01:14;7.70;99.90
29713;DHT22;16623;53.632;10.016;2023-02-03T02:03:45;7.70;99.90
29713;DHT22;16623;53.632;10.016;2023-02-03T02:06:13;7.70;99.90
29713;DHT22;16623;53.632;10.016;2023-02-03T02:08:41;7.70;99.90
29713;DHT22;16623;53.632;10.016;2023-02-03T02:11:08;7.70;99.90
29713;DHT22;16623;53.632;10.016;2023-02-03T02:13:34;7.60;99.90
29713;DHT22;16623;53.632;10.016;2023-02-03T02:21:23;7.70;99.90
29713;DHT22;16623;53.632;10.016;2023-02-03T02:38:07;7.60;99.90
29713;DHT22;16623;53.632;10.016;2023-02-03T02:40:53;7.60;99.90
29713;DHT22;16623;53.632;10.016;2023-02-03T02:43:58;7.70;99.90
29713;DHT22;16623;53.632;10.016;2023-02-03T02:46:30;7.60;99.90
29713;DHT22;16623;53.632;10.016;2023-02-03T02:49:20;7.60;99.90
29713;DHT22;16623;53.632;10.016;2023-02-03T02:51:48;7.60;99.90
29713;DHT22;16623;53.632;10.016;2023-02-03T02:54:16;7.70;99.90
29713;DHT22;16623;53.632;10.016;2023-02-03T02:56:44;7.70;99.90
29713;DHT22;16623;53.632;10.016;2023-02-03T02:59:12;7.70;99.90
29713;DHT22;16623;53.632;10.016;2023-02-03T03:01:38;7.70;99.90
29713;DHT22;16623;53.632;10.016;2023-02-03T03:04:07;7.70;99.90
29713;DHT22;16623;53.632;10.016;2023-02-03T03:06:40;7.70;99.90
29713;DHT22;16623;53.632;10.016;2023-02-03T03:09:14;7.70;99.90
29713;DHT22;16623;53.632;10.016;2023-02-03T03:11:46;7.70;99.90
29713;DHT22;16623;53.632;10.016;2023-02-03T03:14:15;7.70;99.90
29713;DHT22;16623;53.632;10.016;2023-02-03T03:16:47;7.70;99.90
29713;DHT22;16623;53.632;10.016;2023-02-03T03:19:17;7.70;99.90
29713;DHT22;16623;53.632;10.016;2023-02-03T03:21:51;7.80;99.90
29713;DHT22;16623;53.632;10.016;2023-02-03T03:24:19;7.70;99.90
29713;DHT22;16623;53.632;10.016;2023-02-03T03:26:52;7.80;99.90
29713;DHT22;16623;53.632;10.016;2023-02-03T03:29:32;7.80;99.90
29713;DHT22;16623;53.632;10.016;2023-02-03T03:32:01;7.80;99.90
29713;DHT22;16623;53.632;10.016;2023-02-03T03:34:28;7.80;99.90
29713;DHT22;16623;53.632;10.016;2023-02-03T03:37:17;7.80;99.90
29713;DHT22;16623;53.632;10.016;2023-02-03T03:39:55;7.80;99.90
29713;DHT22;16623;53.632;10.016;2023-02-03T03:42:37;7.80;99.90
29713;DHT22;16623;53.632;10.016;2023-02-03T03:45:12;7.90;99.90
29713;DHT22;16623;53.632;10.016;2023-02-03T03:47:45;7.90;99.90
29713;DHT22;16623;53.632;10.016;2023-02-03T03:52:41;7.80;99.90
29713;DHT22;16623;53.632;10.016;2023-02-03T03:55:09;7.90;99.90
29713;DHT22;16623;53.632;10.016;2023-02-03T03:57:53;7.80;99.90
29713;DHT22;16623;53.632;10.016;2023-02-03T04:00:20;7.90;99.90
29713;DHT22;16623;53.632;10.016;2023-02-03T04:02:50;7.90;99.90
29713;DHT22;16623;53.632;10.016;2023-02-03T04:05:17;7.90;99.90
29713;DHT22;16623;53.632;10.016;2023-02-03T04:07:45;7.90;99.90
29713;DHT22;16623;53.632;10.016;2023-02-03T04:10:25;7.80;99.90
29713;DHT22;16623;53.632;10.016;2023-02-03T04:12:53;7.90;99.90
29713;DHT22;16623;53.632;10.016;2023-02-03T04:15:18;7.90;99.90
29713;DHT22;16623;53.632;10.016;2023-02-03T04:17:43;7.90;99.90
29713;DHT22;16623;53.632;10.016;2023-02-03T04:20:10;7.80;99.90
29713;DHT22;16623;53.632;10.016;2023-02-03T04:22:35;7.80;99.90
29713;DHT22;16623;53.632;10.016;2023-02-03T04:25:01;7.80;99.90
29713;DHT22;16623;53.632;10.016;2023-02-03T04:27:27;7.80;99.90
29713;DHT22;16623;53.632;10.016;2023-02-03T04:29:52;7.80;99.90
29713;DHT22;16623;53.632;10.016;2023-02-03T04:32:18;7.70;99.90
29713;DHT22;16623;53.632;10.016;2023-02-03T04:34:44;7.70;99.90
29713;DHT22;16623;53.632;10.016;2023-02-03T04:37:10;7.80;99.90
29713;DHT22;16623;53.632;10.016;2023-02-03T04:39:35;7.80;99.90
29713;DHT22;16623;53.632;10.016;2023-02-03T04:42:01;7.80;99.90
29713;DHT22;16623;53.632;10.016;2023-02-03T04:44:27;7.80;99.90
29713;DHT22;16623;53.632;10.016;2023-02-03T04:46:52;7.70;99.90
29713;DHT22;16623;53.632;10.016;2023-02-03T04:49:18;7.80;99.90
29713;DHT22;16623;53.632;10.016;2023-02-03T04:51:43;7.80;99.90
29713;DHT22;16623;53.632;10.016;2023-02-03T04:54:09;7.80;99.90
29713;DHT22;16623;53.632;10.016;2023-02-03T04:56:36;11.20;99.90
29713;DHT22;16623;53.632;10.016;2023-02-03T04:59:02;7.80;99.90
29713;DHT22;16623;53.632;10.016;2023-02-03T05:01:27;7.80;99.90
29713;DHT22;16623;53.632;10.016;2023-02-03T05:03:53;7.80;99.90
29713;DHT22;16623;53.632;10.016;2023-02-03T05:06:23;7.80;99.90
29713;DHT22;16623;53.632;10.016;2023-02-03T05:08:50;7.80;99.90
29713;DHT22;16623;53.632;10.016;2023-02-03T05:11:15;7.70;99.90
29713;DHT22;16623;53.632;10.016;2023-02-03T05:13:41;7.70;99.90
29713;DHT22;16623;53.632;10.016;2023-02-03T05:16:06;7.70;99.90
29713;DHT22;16623;53.632;10.016;2023-02-03T05:18:32;7.70;99.90
29713;DHT22;16623;53.632;10.016;2023-02-03T05:20:57;7.70;99.90
29713;DHT22;16623;53.632;10.016;2023-02-03T05:23:22;7.70;99.90
29713;DHT22;16623;53.632;10.016;2023-02-03T05:25:48;7.70;99.90
29713;DHT22;16623;53.632;10.016;2023-02-03T05:28:14;7.70;99.90
29713;DHT22;16623;53.632;10.016;2023-02-03T05:30:39;7.80;99.90
29713;DHT22;16623;53.632;10.016;2023-02-03T05:33:05;7.70;99.90
29713;DHT22;16623;53.632;10.016;2023-02-03T05:35:31;7.70;99.90
29713;DHT22;16623;53.632;10.016;2023-02-03T05:37:56;7.70;99.90
29713;DHT22;16623;53.632;10.016;2023-02-03T05:40:23;7.70;99.90
29713;DHT22;16623;53.632;10.016;2023-02-03T05:43:08;7.70;99.90
29713;DHT22;16623;53.632;10.016;2023-02-03T05:45:33;7.70;99.90
29713;DHT22;16623;53.632;10.016;2023-02-03T05:47:59;7.80;99.90
29713;DHT22;16623;53.632;10.016;2023-02-03T05:50:27;7.80;99.90
29713;DHT22;16623;53.632;10.016;2023-02-03T05:53:00;7.70;99.90
29713;DHT22;16623;53.632;10.016;2023-02-03T05:55:26;7.70;99.90
29713;DHT22;16623;53.632;10.016;2023-02-03T05:57:52;7.70;99.90
29713;DHT22;16623;53.632;10.016;2023-02-03T06:00:18;10.10;99.90
29713;DHT22;16623;53.632;10.016;2023-02-03T06:02:51;7.70;99.90
29713;DHT22;16623;53.632;10.016;2023-02-03T06:05:17;7.80;99.90
29713;DHT22;16623;53.632;10.016;2023-02-03T06:07:43;7.80;99.90
29713;DHT22;16623;53.632;10.016;2023-02-03T06:10:09;7.80;99.90
29713;DHT22;16623;53.632;10.016;2023-02-03T06:12:36;7.80;99.90
29713;DHT22;16623;53.632;10.016;2023-02-03T06:15:02;7.80;99.90
29713;DHT22;16623;53.632;10.016;2023-02-03T06:17:27;7.80;99.90
29713;DHT22;16623;53.632;10.016;2023-02-03T06:19:53;7.70;99.90
29713;DHT22;16623;53.632;10.016;2023-02-03T06:22:19;8.80;99.90
29713;DHT22;16623;53.632;10.016;2023-02-03T06:24:45;7.80;99.90
29713;DHT22;16623;53.632;10.016;2023-02-03T06:27:13;7.80;99.90
29713;DHT22;16623;53.632;10.016;2023-02-03T06:29:40;7.80;99.90
29713;DHT22;16623;53.632;10.016;2023-02-03T06:32:06;7.80;99.90
29713;DHT22;16623;53.632;10.016;2023-02-03T06:34:32;7.70;99.90
29713;DHT22;16623;53.632;10.016;2023-02-03T06:36:58;7.80;99.90
29713;DHT22;16623;53.632;10.016;2023-02-03T06:39:23;7.80;99.90
29713;DHT22;16623;53.632;10.016;2023-02-03T06:41:49;7.80;99.90
29713;DHT22;16623;53.632;10.016;2023-02-03T06:44:16;7.90;99.90
29713;DHT22;16623;53.632;10.016;2023-02-03T06:46:42;7.90;99.90
29713;DHT22;16623;53.632;10.016;2023-02-03T06:49:07;7.90;99.90
29713;DHT22;16623;53.632;10.016;2023-02-03T06:51:33;7.90;99.90
29713;DHT22;16623;53.632;10.016;2023-02-03T06:53:58;7.90;99.90
29713;DHT22;16623;53.632;10.016;2023-02-03T06:56:24;8.00;99.90
29713;DHT22;16623;53.632;10.016;2023-02-03T06:58:49;8.00;99.90
29713;DHT22;16623;53.632;10.016;2023-02-03T07:01:15;8.00;99.90
29713;DHT22;16623;53.632;10.016;2023-02-03T07:03:40;8.00;99.90
29713;DHT22;16623;53.632;10.016;2023-02-03T07:06:06;8.10;99.90
29713;DHT22;16623;53.632;10.016;2023-02-03T07:08:31;8.10;99.90
29713;DHT22;16623;53.632;10.016;2023-02-03T07:10:57;8.10;99.90
29713;DHT22;16623;53.632;10.016;2023-02-03T07:13:22;8.10;99.90
29713;DHT22;16623;53.632;10.016;2023-02-03T07:15:48;8.20;99.90
29713;DHT22;16623;53.632;10.016;2023-02-03T07:18:13;8.20;99.90
29713;DHT22;16623;53.632;10.016;2023-02-03T07:20:39;8.20;99.90
29713;DHT22;16623;53.632;10.016;2023-02-03T07:23:05;8.20;99.90
29713;DHT22;16623;53.632;10.016;2023-02-03T07:25:31;8.20;99.90
29713;DHT22;16623;53.632;10.016;2023-02-03T07:27:57;8.20;99.90
29713;DHT22;16623;53.632;10.016;2023-02-03T07:30:22;8.30;99.90
29713;DHT22;16623;53.632;10.016;2023-02-03T07:32:49;8.30;99.90
29713;DHT22;16623;53.632;10.016;2023-02-03T07:35:15;8.10;99.90
29713;DHT22;16623;53.632;10.016;2023-02-03T07:37:41;8.20;99.90
29713;DHT22;16623;53.632;10.016;2023-02-03T07:40:08;8.30;99.90
29713;DHT22;16623;53.632;10.016;2023-02-03T07:42:34;8.20;99.90
29713;DHT22;16623;53.632;10.016;2023-02-03T07:44:59;9.80;99.90
29713;DHT22;16623;53.632;10.016;2023-02-03T07:47:25;8.30;99.90
29713;DHT22;16623;53.632;10.016;2023-02-03T07:49:50;8.30;99.90
29713;DHT22;16623;53.632;10.016;2023-02-03T07:52:16;8.30;99.90
29713;DHT22;16623;53.632;10.016;2023-02-03T07:54:41;8.30;99.90
29713;DHT22;16623;53.632;10.016;2023-02-03T07:57:07;8.40;99.90
29713;DHT22;16623;53.632;10.016;2023-02-03T07:59:33;8.30;99.90
29713;DHT22;16623;53.632;10.016;2023-02-03T08:01:58;8.30;99.90
29713;DHT22;16623;53.632;10.016;2023-02-03T08:04:24;8.20;99.90
29713;DHT22;16623;53.632;10.016;2023-02-03T08:06:49;8.30;99.90
29713;DHT22;16623;53.632;10.016;2023-02-03T08:09:15;8.20;99.90
29713;DHT22;16623;53.632;10.016;2023-02-03T08:11:40;8.20;99.90
29713;DHT22;16623;53.632;10.016;2023-02-03T08:14:06;7.90;99.90
29713;DHT22;16623;53.632;10.016;2023-02-03T08:16:31;7.60;99.90
29713;DHT22;16623;53.632;10.016;2023-02-03T08:18:57;7.40;99.90
29713;DHT22;16623;53.632;10.016;2023-02-03T08:21:22;7.40;99.90
29713;DHT22;16623;53.632;10.016;2023-02-03T08:23:48;7.40;99.90
29713;DHT22;16623;53.632;10.016;2023-02-03T08:26:13;7.50;99.90
29713;DHT22;16623;53.632;10.016;2023-02-03T08:28:39;7.50;99.90
29713;DHT22;16623;53.632;10.016;2023-02-03T08:31:09;9.40;99.90
29713;DHT22;16623;53.632;10.016;2023-02-03T08:33:35;7.60;99.90
29713;DHT22;16623;53.632;10.016;2023-02-03T08:36:00;7.60;99.90
29713;DHT22;16623;53.632;10.016;2023-02-03T08:38:27;7.60;99.90
29713;DHT22;16623;53.632;10.016;2023-02-03T08:40:52;7.60;99.90
29713;DHT22;16623;53.632;10.016;2023-02-03T08:43:19;7.60;99.90
29713;DHT22;16623;53.632;10.016;2023-02-03T08:45:44;7.60;99.90
29713;DHT22;16623;53.632;10.016;2023-02-03T08:48:10;7.60;99.90
29713;DHT22;16623;53.632;10.016;2023-02-03T08:50:36;7.60;99.90
29713;DHT22;16623;53.632;10.016;2023-02-03T08:53:01;7.70;99.90
29713;DHT22;16623;53.632;10.016;2023-02-03T08:55:27;7.60;99.90
29713;DHT22;16623;53.632;10.016;2023-02-03T08:57:53;7.60;99.90
29713;DHT22;16623;53.632;10.016;2023-02-03T09:00:19;7.60;99.90
29713;DHT22;16623;53.632;10.016;2023-02-03T09:02:48;7.60;99.90
29713;DHT22;16623;53.632;10.016;2023-02-03T09:05:14;7.60;99.90
29713;DHT22;16623;53.632;10.016;2023-02-03T09:07:42;7.50;99.90
29713;DHT22;16623;53.632;10.016;2023-02-03T09:10:08;7.70;99.90
29713;DHT22;16623;53.632;10.016;2023-02-03T09:12:33;7.60;99.90
29713;DHT22;16623;53.632;10.016;2023-02-03T09:14:59;7.60;99.90
29713;DHT22;16623;53.632;10.016;2023-02-03T09:17:24;7.60;99.90
29713;DHT22;16623;53.632;10.016;2023-02-03T09:19:50;7.60;99.90
29713;DHT22;16623;53.632;10.016;2023-02-03T09:22:15;7.60;99.90
29713;DHT22;16623;53.632;10.016;2023-02-03T09:24:41;7.70;99.90
29713;DHT22;16623;53.632;10.016;2023-02-03T09:27:07;7.80;99.90
29713;DHT22;16623;53.632;10.016;2023-02-03T09:29:33;7.80;99.90
29713;DHT22;16623;53.632;10.016;2023-02-03T09:31:58;7.70;99.90
29713;DHT22;16623;53.632;10.016;2023-02-03T09:34:30;7.80;99.90
29713;DHT22;16623;53.632;10.016;2023-02-03T09:36:56;7.90;99.90
29713;DHT22;16623;53.632;10.016;2023-02-03T09:39:21;7.90;99.90
29713;DHT22;16623;53.632;10.016;2023-02-03T09:41:57;8.10;99.90
29713;DHT22;16623;53.632;10.016;2023-02-03T09:47:00;8.20;99.90
29713;DHT22;16623;53.632;10.016;2023-02-03T09:49:36;8.20;99.90
29713;DHT22;16623;53.632;10.016;2023-02-03T09:52:13;8.30;99.90
29713;DHT22;16623;53.632;10.016;2023-02-03T09:54:45;8.30;99.90
29713;DHT22;16623;53.632;10.016;2023-02-03T09:57:25;8.40;99.90
29713;DHT22;16623;53.632;10.016;2023-02-03T09:59:53;8.30;99.90
29713;DHT22;16623;53.632;10.016;2023-02-03T10:02:44;8.40;99.90
29713;DHT22;16623;53.632;10.016;2023-02-03T10:10:40;8.50;99.90
29713;DHT22;16623;53.632;10.016;2023-02-03T10:16:33;8.60;99.90
29713;DHT22;16623;53.632;10.016;2023-02-03T10:19:02;8.60;99.90
29713;DHT22;16623;53.632;10.016;2023-02-03T10:21:42;8.70;99.90
29713;DHT22;16623;53.632;10.016;2023-02-03T10:24:16;8.70;99.90
29713;DHT22;16623;53.632;10.016;2023-02-03T10:26:42;8.70;99.90
29713;DHT22;16623;53.632;10.016;2023-02-03T10:29:22;8.80;99.90
29713;DHT22;16623;53.632;10.016;2023-02-03T10:31:53;8.80;99.90
29713;DHT22;16623;53.632;10.016;2023-02-03T10:34:19;8.90;99.90
29713;DHT22;16623;53.632;10.016;2023-02-03T10:36:55;8.90;99.90
29713;DHT22;16623;53.632;10.016;2023-02-03T10:39:38;8.90;99.90
29713;DHT22;16623;53.632;10.016;2023-02-03T10:42:05;8.90;99.90
29713;DHT22;16623;53.632;10.016;2023-02-03T10:47:24;8.80;99.90
29713;DHT22;16623;53.632;10.016;2023-02-03T10:49:51;8.80;99.90
29713;DHT22;16623;53.632;10.016;2023-02-03T10:52:31;8.50;99.90
29713;DHT22;16623;53.632;10.016;2023-02-03T10:54:59;8.60;99.90
29713;DHT22;16623;53.632;10.016;2023-02-03T10:57:29;8.60;99.90
29713;DHT22;16623;53.632;10.016;2023-02-03T11:00:36;8.60;99.90
29713;DHT22;16623;53.632;10.016;2023-02-03T11:03:06;8.60;99.90
29713;DHT22;16623;53.632;10.016;2023-02-03T11:05:33;8.70;99.90
29713;DHT22;16623;53.632;10.016;2023-02-03T11:07:58;8.70;99.90
29713;DHT22;16623;53.632;10.016;2023-02-03T11:13:21;8.70;99.90
29713;DHT22;16623;53.632;10.016;2023-02-03T11:16:01;8.70;99.90
29713;DHT22;16623;53.632;10.016;2023-02-03T11:21:14;8.80;99.90
29713;DHT22;16623;53.632;10.016;2023-02-03T11:23:53;9.00;99.90
29713;DHT22;16623;53.632;10.016;2023-02-03T11:26:35;9.00;99.90
29713;DHT22;16623;53.632;10.016;2023-02-03T11:29:04;9.10;99.90
29713;DHT22;16623;53.632;10.016;2023-02-03T11:31:34;9.20;99.90
29713;DHT22;16623;53.632;10.016;2023-02-03T11:34:04;9.20;99.90
29713;DHT22;16623;53.632;10.016;2023-02-03T11:36:32;9.10;99.90
29713;DHT22;16623;53.632;10.016;2023-02-03T11:39:28;9.10;99.90
29713;DHT22;16623;53.632;10.016;2023-02-03T11:42:00;9.10;99.90
29713;DHT22;16623;53.632;10.016;2023-02-03T11:44:28;9.00;99.90
29713;DHT22;16623;53.632;10.016;2023-02-03T11:47:08;9.00;99.90
29713;DHT22;16623;53.632;10.016;2023-02-03T11:50:05;9.00;99.90
29713;DHT22;16623;53.632;10.016;2023-02-03T11:52:55;9.10;99.90
29713;DHT22;16623;53.632;10.016;2023-02-03T12:01:10;9.10;99.90
29713;DHT22;16623;53.632;10.016;2023-02-03T12:04:07;9.00;99.90
29713;DHT22;16623;53.632;10.016;2023-02-03T12:07:07;9.10;99.90
29713;DHT22;16623;53.632;10.016;2023-02-03T12:09:58;9.10;99.90
29713;DHT22;16623;53.632;10.016;2023-02-03T12:12:58;9.10;99.90
29713;DHT22;16623;53.632;10.016;2023-02-03T12:18:37;9.20;99.90
29713;DHT22;16623;53.632;10.016;2023-02-03T12:24:11;9.30;99.90
29713;DHT22;16623;53.632;10.016;2023-02-03T12:26:57;9.30;99.90
29713;DHT22;16623;53.632;10.016;2023-02-03T12:29:31;9.20;99.90
29713;DHT22;16623;53.632;10.016;2023-02-03T12:35:01;9.10;99.90
29713;DHT22;16623;53.632;10.016;2023-02-03T12:40:14;9.00;99.90
29713;DHT22;16623;53.632;10.016;2023-02-03T12:42:46;9.00;99.90
29713;DHT22;16623;53.632;10.016;2023-02-03T12:45:18;8.90;99.90
29713;DHT22;16623;53.632;10.016;2023-02-03T12:47:54;8.90;99.90
29713;DHT22;16623;53.632;10.016;2023-02-03T12:50:21;8.90;99.90
29713;DHT22;16623;53.632;10.016;2023-02-03T12:53:13;8.80;99.90
29713;DHT22;16623;53.632;10.016;2023-02-03T12:55:54;8.80;99.90
29713;DHT22;16623;53.632;10.016;2023-02-03T12:58:25;8.80;99.90
29713;DHT22;16623;53.632;10.016;2023-02-03T13:01:07;8.80;99.90
29713;DHT22;16623;53.632;10.016;2023-02-03T13:14:43;8.70;99.90
29713;DHT22;16623;53.632;10.016;2023-02-03T13:17:23;8.80;99.90
29713;DHT22;16623;53.632;10.016;2023-02-03T13:19:57;8.70;99.90
29713;DHT22;16623;53.632;10.016;2023-02-03T13:22:24;8.70;99.90
29713;DHT22;16623;53.632;10.016;2023-02-03T13:28:04;8.70;99.90
29713;DHT22;16623;53.632;10.016;2023-02-03T13:30:43;8.70;99.90
29713;DHT22;16623;53.632;10.016;2023-02-03T13:41:52;8.60;99.90
29713;DHT22;16623;53.632;10.016;2023-02-03T13:44:25;8.60;99.90
29713;DHT22;16623;53.632;10.016;2023-02-03T13:46:55;8.60;99.90
29713;DHT22;16623;53.632;10.016;2023-02-03T13:49:28;8.70;99.90
29713;DHT22;16623;53.632;10.016;2023-02-03T13:51:55;8.50;99.90
29713;DHT22;16623;53.632;10.016;2023-02-03T13:54:32;8.50;99.90
29713;DHT22;16623;53.632;10.016;2023-02-03T13:57:05;8.50;99.90
29713;DHT22;16623;53.632;10.016;2023-02-03T13:59:45;8.50;99.90
29713;DHT22;16623;53.632;10.016;2023-02-03T14:07:36;8.50;99.90
29713;DHT22;16623;53.632;10.016;2023-02-03T14:15:22;8.50;99.90
29713;DHT22;16623;53.632;10.016;2023-02-03T14:17:59;8.40;99.90
29713;DHT22;16623;53.632;10.016;2023-02-03T14:25:54;8.40;99.90
29713;DHT22;16623;53.632;10.016;2023-02-03T14:28:37;8.30;99.90
29713;DHT22;16623;53.632;10.016;2023-02-03T14:31:18;8.30;99.90
29713;DHT22;16623;53.632;10.016;2023-02-03T14:36:36;8.30;99.90
29713;DHT22;16623;53.632;10.016;2023-02-03T14:50:25;8.20;99.90
29713;DHT22;16623;53.632;10.016;2023-02-03T14:56:19;8.20;99.90
29713;DHT22;16623;53.632;10.016;2023-02-03T14:58:52;8.20;99.90
29713;DHT22;16623;53.632;10.016;2023-02-03T15:02:06;8.10;99.90
29713;DHT22;16623;53.632;10.016;2023-02-03T15:04:32;8.10;99.90
29713;DHT22;16623;53.632;10.016;2023-02-03T15:06:57;8.10;99.90
29713;DHT22;16623;53.632;10.016;2023-02-03T15:09:45;8.10;99.90
29713;DHT22;16623;53.632;10.016;2023-02-03T15:12:34;8.10;99.90
29713;DHT22;16623;53.632;10.016;2023-02-03T15:15:24;8.20;99.90
29713;DHT22;16623;53.632;10.016;2023-02-03T15:17:56;8.10;99.90
29713;DHT22;16623;53.632;10.016;2023-02-03T15:20:33;8.10;99.90
29713;DHT22;16623;53.632;10.016;2023-02-03T15:23:00;8.10;99.90
29713;DHT22;16623;53.632;10.016;2023-02-03T15:25:28;8.10;99.90
29713;DHT22;16623;53.632;10.016;2023-02-03T15:28:12;8.10;99.90
29713;DHT22;16623;53.632;10.016;2023-02-03T15:30:39;8.10;99.90
29713;DHT22;16623;53.632;10.016;2023-02-03T15:33:16;8.10;99.90
29713;DHT22;16623;53.632;10.016;2023-02-03T15:35:48;8.00;99.90
29713;DHT22;16623;53.632;10.016;2023-02-03T15:38:23;8.00;99.90
29713;DHT22;16623;53.632;10.016;2023-02-03T15:41:06;8.00;99.90
29713;DHT22;16623;53.632;10.016;2023-02-03T15:43:39;8.00;99.90
29713;DHT22;16623;53.632;10.016;2023-02-03T15:46:24;8.00;99.90
29713;DHT22;16623;53.632;10.016;2023-02-03T15:49:13;8.00;99.90
29713;DHT22;16623;53.632;10.016;2023-02-03T15:51:50;8.00;99.90
29713;DHT22;16623;53.632;10.016;2023-02-03T15:54:20;8.00;99.90
29713;DHT22;16623;53.632;10.016;2023-02-03T15:57:07;7.90;99.90
29713;DHT22;16623;53.632;10.016;2023-02-03T15:59:38;7.90;99.90
29713;DHT22;16623;53.632;10.016;2023-02-03T16:02:14;8.00;99.90
29713;DHT22;16623;53.632;10.016;2023-02-03T16:04:41;7.90;99.90
29713;DHT22;16623;53.632;10.016;2023-02-03T16:07:17;8.00;99.90
29713;DHT22;16623;53.632;10.016;2023-02-03T16:09:43;8.00;99.90
29713;DHT22;16623;53.632;10.016;2023-02-03T16:12:25;8.00;99.90
29713;DHT22;16623;53.632;10.016;2023-02-03T16:14:52;7.90;99.90
29713;DHT22;16623;53.632;10.016;2023-02-03T16:22:38;7.90;99.90
29713;DHT22;16623;53.632;10.016;2023-02-03T16:25:17;7.80;99.90
29713;DHT22;16623;53.632;10.016;2023-02-03T16:27:44;7.80;99.90
29713;DHT22;16623;53.632;10.016;2023-02-03T16:33:13;7.70;99.90
29713;DHT22;16623;53.632;10.016;2023-02-03T16:36:11;7.70;99.90
29713;DHT22;16623;53.632;10.016;2023-02-03T16:38:57;7.60;99.90
29713;DHT22;16623;53.632;10.016;2023-02-03T16:41:44;7.50;99.90
29713;DHT22;16623;53.632;10.016;2023-02-03T16:44:28;7.50;99.90
29713;DHT22;16623;53.632;10.016;2023-02-03T16:47:22;7.40;99.90
29713;DHT22;16623;53.632;10.016;2023-02-03T16:50:15;8.50;99.90
29713;DHT22;16623;53.632;10.016;2023-02-03T16:53:00;7.30;99.90
29713;DHT22;16623;53.632;10.016;2023-02-03T16:55:26;7.20;99.90
29713;DHT22;16623;53.632;10.016;2023-02-03T16:57:52;7.20;99.90
29713;DHT22;16623;53.632;10.016;2023-02-03T17:00:18;7.30;99.90
29713;DHT22;16623;53.632;10.016;2023-02-03T17:02:47;7.20;99.90
29713;DHT22;16623;53.632;10.016;2023-02-03T17:05:13;7.20;99.90
29713;DHT22;16623;53.632;10.016;2023-02-03T17:07:38;7.10;99.90
29713;DHT22;16623;53.632;10.016;2023-02-03T17:10:04;7.10;99.90
29713;DHT22;16623;53.632;10.016;2023-02-03T17:12:30;7.00;99.90
29713;DHT22;16623;53.632;10.016;2023-02-03T17:14:57;7.00;99.90
29713;DHT22;16623;53.632;10.016;2023-02-03T17:17:23;7.00;99.90
29713;DHT22;16623;53.632;10.016;2023-02-03T17:19:49;7.00;99.90
29713;DHT22;16623;53.632;10.016;2023-02-03T17:22:15;6.90;99.90
29713;DHT22;16623;53.632;10.016;2023-02-03T17:24:40;6.90;99.90
29713;DHT22;16623;53.632;10.016;2023-02-03T17:27:06;6.90;99.90
29713;DHT22;16623;53.632;10.016;2023-02-03T17:29:31;6.90;99.90
29713;DHT22;16623;53.632;10.016;2023-02-03T17:31:57;6.90;99.90
29713;DHT22;16623;53.632;10.016;2023-02-03T17:34:22;6.80;99.90
29713;DHT22;16623;53.632;10.016;2023-02-03T17:36:48;6.90;99.90
29713;DHT22;16623;53.632;10.016;2023-02-03T17:39:13;6.80;99.90
29713;DHT22;16623;53.632;10.016;2023-02-03T17:41:39;6.80;99.90
29713;DHT22;16623;53.632;10.016;2023-02-03T17:44:04;6.80;99.90
29713;DHT22;16623;53.632;10.016;2023-02-03T17:46:30;6.80;99.90
29713;DHT22;16623;53.632;10.016;2023-02-03T17:51:23;6.80;99.90
29713;DHT22;16623;53.632;10.016;2023-02-03T17:53:51;6.70;99.90
29713;DHT22;16623;53.632;10.016;2023-02-03T17:56:21;6.70;99.90
29713;DHT22;16623;53.632;10.016;2023-02-03T17:58:58;6.70;99.90
29713;DHT22;16623;53.632;10.016;2023-02-03T18:01:24;6.70;99.90